createdAt,value
2022-12-18T00:02:00.443Z,99.90
2022-12-18T00:06:24.961Z,99.90
2022-12-18T00:10:47.316Z,99.90
2022-12-18T00:15:09.499Z,99.90
2022-12-18T00:19:31.254Z,99.90
2022-12-18T00:23:54.477Z,99.90
2022-12-18T00:28:16.263Z,99.90
2022-12-18T00:32:38.458Z,99.90
2022-12-18T00:37:00.330Z,99.90
2022-12-18T00:41:41.440Z,99.90
2022-12-18T00:46:03.532Z,99.90
2022-12-18T00:50:26.778Z,99.90
2022-12-18T00:54:48.550Z,99.90
2022-12-18T00:59:10.636Z,99.90
2022-12-18T01:03:34.739Z,99.90
2022-12-18T01:07:57.390Z,99.90
2022-12-18T01:12:19.495Z,99.90
2022-12-18T01:16:41.538Z,99.90
2022-12-18T01:21:13.156Z,99.90
2022-12-18T01:25:37.699Z,99.90
2022-12-18T01:29:59.706Z,99.90
2022-12-18T01:34:21.790Z,99.90
2022-12-18T01:38:44.292Z,99.90
2022-12-18T01:43:06.000Z,99.90
2022-12-18T01:47:47.414Z,99.90
2022-12-18T01:52:09.999Z,99.90
2022-12-18T01:56:32.616Z,99.90
2022-12-18T02:00:56.487Z,99.90
2022-12-18T02:05:43.034Z,99.90
2022-12-18T02:10:20.785Z,99.90
2022-12-18T02:14:56.328Z,99.90
2022-12-18T02:19:47.411Z,99.90
2022-12-18T02:24:38.215Z,99.90
2022-12-18T02:29:23.994Z,99.90
2022-12-18T02:33:47.130Z,99.90
2022-12-18T02:38:10.301Z,99.90
2022-12-18T02:42:33.980Z,99.90
2022-12-18T02:46:57.404Z,99.90
2022-12-18T02:51:37.168Z,99.90
2022-12-18T02:56:26.740Z,99.90
2022-12-18T03:01:22.040Z,99.90
2022-12-18T03:06:11.863Z,99.90
2022-12-18T03:10:41.786Z,99.90
2022-12-18T03:15:06.438Z,99.90
2022-12-18T03:19:32.851Z,99.90
2022-12-18T03:23:56.862Z,99.90
2022-12-18T03:28:23.750Z,99.90
2022-12-18T03:33:11.647Z,99.90
2022-12-18T03:37:38.227Z,99.90
2022-12-18T03:42:25.902Z,99.90
2022-12-18T03:46:59.180Z,99.90
2022-12-18T03:52:02.138Z,99.90
2022-12-18T03:56:30.515Z,99.90
2022-12-18T04:00:58.283Z,99.90
2022-12-18T04:05:23.627Z,99.90
2022-12-18T04:09:49.310Z,99.90
2022-12-18T04:14:17.665Z,99.90
2022-12-18T04:18:40.575Z,99.90
2022-12-18T04:23:04.042Z,99.90
2022-12-18T04:27:25.798Z,99.90
2022-12-18T04:31:47.644Z,99.90
2022-12-18T04:36:09.740Z,99.90
2022-12-18T04:40:31.790Z,99.90
2022-12-18T04:44:53.750Z,99.90
2022-12-18T04:49:15.675Z,99.90
2022-12-18T04:53:38.071Z,99.90
2022-12-18T04:58:00.368Z,99.90
2022-12-18T05:02:22.447Z,99.90
2022-12-18T05:06:44.338Z,99.90
2022-12-18T05:11:10.038Z,99.90
2022-12-18T05:15:34.115Z,99.90
2022-12-18T05:19:55.825Z,99.90
2022-12-18T05:24:18.004Z,99.90
2022-12-18T05:28:39.999Z,99.90
2022-12-18T05:33:01.903Z,99.90
2022-12-18T05:37:24.082Z,99.90
2022-12-18T05:41:45.815Z,99.90
2022-12-18T05:46:16.107Z,99.90
2022-12-18T05:50:40.380Z,99.90
2022-12-18T05:55:02.140Z,99.90
2022-12-18T05:59:24.166Z,99.90
2022-12-18T06:03:46.773Z,99.90
2022-12-18T06:08:09.864Z,99.90
2022-12-18T06:12:31.775Z,99.90
2022-12-18T06:16:53.583Z,99.90
2022-12-18T06:21:15.548Z,99.90
2022-12-18T06:25:40.522Z,99.90
2022-12-18T06:30:02.986Z,99.90
2022-12-18T06:34:24.788Z,99.90
2022-12-18T06:38:46.790Z,99.90
2022-12-18T06:43:08.862Z,99.90
2022-12-18T06:47:30.511Z,99.90
2022-12-18T06:51:52.987Z,99.90
2022-12-18T06:56:15.212Z,99.90
2022-12-18T07:00:37.385Z,99.90
2022-12-18T07:04:59.604Z,99.90
2022-12-18T07:09:21.667Z,99.90
2022-12-18T07:13:44.210Z,99.90
2022-12-18T07:18:06.250Z,99.90
2022-12-18T07:22:28.311Z,99.90
2022-12-18T07:26:50.107Z,99.90
2022-12-18T07:31:21.457Z,99.90
2022-12-18T07:35:43.608Z,99.90
2022-12-18T07:40:07.269Z,99.90
2022-12-18T07:44:29.404Z,99.90
2022-12-18T07:48:51.116Z,99.90
2022-12-18T07:53:13.147Z,99.90
2022-12-18T07:57:49.954Z,99.90
2022-12-18T08:02:13.365Z,99.90
2022-12-18T08:06:35.270Z,99.90
2022-12-18T08:10:58.412Z,99.90
2022-12-18T08:15:21.480Z,99.90
2022-12-18T08:19:43.406Z,99.90
2022-12-18T08:24:06.086Z,99.90
2022-12-18T08:28:28.104Z,99.90
2022-12-18T08:32:54.173Z,99.90
2022-12-18T08:37:15.942Z,99.90
2022-12-18T08:41:37.962Z,99.90
2022-12-18T08:46:00.051Z,99.90
2022-12-18T08:50:22.190Z,97.00
2022-12-18T08:54:43.939Z,90.20
2022-12-18T08:59:05.910Z,82.90
2022-12-18T09:03:27.433Z,73.20
2022-12-18T09:07:49.243Z,66.40
2022-12-18T09:12:11.187Z,62.30
2022-12-18T09:16:35.992Z,59.40
2022-12-18T09:20:58.170Z,58.60
2022-12-18T09:25:20.153Z,58.10
2022-12-18T09:29:41.997Z,57.30
2022-12-18T09:34:07.027Z,57.40
2022-12-18T09:38:29.100Z,56.30
2022-12-18T09:43:00.832Z,56.30
2022-12-18T09:47:34.658Z,56.70
2022-12-18T09:52:17.523Z,55.50
2022-12-18T09:56:44.087Z,56.00
2022-12-18T10:01:28.809Z,54.50
2022-12-18T10:06:12.086Z,55.10
2022-12-18T10:10:54.680Z,56.00
2022-12-18T10:15:45.690Z,55.00
2022-12-18T10:20:20.579Z,55.20
2022-12-18T10:25:30.563Z,56.30
2022-12-18T10:29:54.072Z,54.80
2022-12-18T10:34:16.188Z,53.30
2022-12-18T10:38:38.818Z,52.80
2022-12-18T10:43:15.562Z,52.90
2022-12-18T10:47:42.891Z,52.90
2022-12-18T10:52:23.743Z,51.60
2022-12-18T10:56:46.431Z,51.20
2022-12-18T11:01:15.528Z,52.30
2022-12-18T11:05:38.004Z,51.20
2022-12-18T11:10:03.393Z,52.10
2022-12-18T11:14:46.790Z,51.50
2022-12-18T11:19:34.541Z,52.50
2022-12-18T11:23:56.386Z,53.00
2022-12-18T11:28:43.975Z,54.40
2022-12-18T11:33:23.507Z,52.40
2022-12-18T11:37:58.710Z,52.30
2022-12-18T11:42:54.784Z,52.40
2022-12-18T11:47:41.761Z,51.10
2022-12-18T11:52:17.478Z,58.00
2022-12-18T11:56:52.485Z,66.00
2022-12-18T12:01:45.059Z,68.70
2022-12-18T12:06:51.307Z,72.80
2022-12-18T12:11:59.730Z,76.10
2022-12-18T12:16:35.647Z,81.40
2022-12-18T12:21:06.715Z,86.20
2022-12-18T12:25:57.633Z,90.30
2022-12-18T12:30:39.667Z,91.80
2022-12-18T12:35:30.034Z,94.30
2022-12-18T12:39:53.945Z,94.40
2022-12-18T12:44:30.510Z,94.60
2022-12-18T12:49:07.215Z,95.80
2022-12-18T12:53:37.004Z,96.10
2022-12-18T12:58:33.328Z,95.90
2022-12-18T13:03:30.097Z,96.10
2022-12-18T13:08:07.069Z,96.90
2022-12-18T13:12:48.331Z,98.10
2022-12-18T13:17:21.308Z,97.90
2022-12-18T13:21:43.611Z,98.50
2022-12-18T13:26:10.828Z,98.40
2022-12-18T13:30:35.547Z,98.60
2022-12-18T13:35:22.745Z,98.80
2022-12-18T13:39:44.986Z,99.60
2022-12-18T13:44:40.313Z,99.90
2022-12-18T13:49:15.141Z,99.90
2022-12-18T13:53:50.707Z,99.90
2022-12-18T13:58:14.116Z,99.90
2022-12-18T14:02:36.404Z,99.90
2022-12-18T14:07:21.985Z,99.90
2022-12-18T14:11:51.534Z,99.90
2022-12-18T14:16:17.815Z,99.90
2022-12-18T14:20:50.644Z,99.90
2022-12-18T14:25:14.004Z,99.90
2022-12-18T14:29:36.339Z,99.90
2022-12-18T14:33:58.337Z,99.90
2022-12-18T14:38:38.537Z,99.90
2022-12-18T14:43:00.179Z,99.90
2022-12-18T14:47:22.171Z,99.90
2022-12-18T14:51:59.632Z,99.90
2022-12-18T14:56:25.673Z,99.90
2022-12-18T15:00:47.870Z,99.90
2022-12-18T15:05:15.538Z,99.90
2022-12-18T15:09:40.348Z,99.90
2022-12-18T15:14:30.978Z,99.90
2022-12-18T15:18:53.556Z,99.90
2022-12-18T15:23:44.591Z,99.90
2022-12-18T15:28:24.586Z,99.90
2022-12-18T15:32:47.482Z,99.90
2022-12-18T15:37:09.885Z,99.90
2022-12-18T15:41:36.200Z,99.90
2022-12-18T15:45:58.958Z,99.90
2022-12-18T15:50:21.274Z,99.90
2022-12-18T15:55:01.844Z,99.90
2022-12-18T15:59:24.400Z,99.90
2022-12-18T16:03:46.535Z,99.90
2022-12-18T16:08:08.623Z,99.90
2022-12-18T16:12:30.836Z,99.90
2022-12-18T16:17:07.116Z,99.90
2022-12-18T16:21:33.836Z,99.90
2022-12-18T16:25:56.213Z,99.90
2022-12-18T16:30:22.459Z,99.90
2022-12-18T16:34:45.248Z,99.90
2022-12-18T16:39:07.367Z,99.90
2022-12-18T16:43:29.414Z,99.90
2022-12-18T16:47:51.559Z,99.90
2022-12-18T16:52:14.014Z,99.90
2022-12-18T16:56:35.997Z,99.90
2022-12-18T17:00:57.843Z,99.90
2022-12-18T17:05:19.637Z,99.90
2022-12-18T17:09:42.201Z,99.90
2022-12-18T17:14:19.769Z,99.90
2022-12-18T17:18:41.756Z,99.90
2022-12-18T17:23:03.919Z,99.90
2022-12-18T17:27:25.886Z,99.90
2022-12-18T17:31:48.113Z,99.90
2022-12-18T17:36:10.873Z,99.90
2022-12-18T17:40:36.383Z,99.90
2022-12-18T17:44:58.225Z,99.90
2022-12-18T17:49:20.267Z,99.90
2022-12-18T17:53:42.986Z,99.90
2022-12-18T17:58:05.439Z,99.90
2022-12-18T18:02:27.583Z,99.90
2022-12-18T18:06:50.449Z,99.90
2022-12-18T18:11:35.582Z,99.90
2022-12-18T18:15:58.533Z,99.90
2022-12-18T18:20:22.683Z,99.90
2022-12-18T18:24:45.252Z,99.90
2022-12-18T18:29:19.674Z,99.90
2022-12-18T18:33:42.620Z,99.90
2022-12-18T18:38:04.855Z,99.90
2022-12-18T18:42:26.819Z,99.90
2022-12-18T18:46:48.978Z,99.90
2022-12-18T18:51:21.174Z,99.90
2022-12-18T18:55:43.884Z,99.90
2022-12-18T19:00:06.703Z,99.90
2022-12-18T19:04:32.419Z,99.90
2022-12-18T19:08:59.431Z,99.90
2022-12-18T19:13:24.800Z,99.90
2022-12-18T19:17:47.424Z,99.90
2022-12-18T19:22:10.727Z,99.90
2022-12-18T19:26:32.648Z,99.90
2022-12-18T19:30:59.936Z,99.90
2022-12-18T19:35:21.957Z,99.90
2022-12-18T19:39:44.076Z,99.90
2022-12-18T19:44:08.053Z,99.10
2022-12-18T19:48:30.708Z,99.00
2022-12-18T19:52:52.566Z,98.50
2022-12-18T19:57:14.314Z,98.00
2022-12-18T20:01:36.586Z,98.00
2022-12-18T20:06:15.991Z,97.70
2022-12-18T20:10:37.615Z,97.00
2022-12-18T20:14:59.803Z,96.90
2022-12-18T20:19:22.281Z,95.90
2022-12-18T20:23:45.608Z,96.90
2022-12-18T20:28:08.120Z,96.00
2022-12-18T20:32:35.353Z,96.20
2022-12-18T20:36:58.990Z,95.80
2022-12-18T20:41:23.167Z,96.10
2022-12-18T20:45:45.156Z,96.80
2022-12-18T20:50:09.134Z,96.40
2022-12-18T20:54:31.829Z,96.20
2022-12-18T20:59:00.443Z,95.20
2022-12-18T21:03:22.089Z,95.00
2022-12-18T21:07:44.375Z,94.40
2022-12-18T21:12:34.943Z,93.50
2022-12-18T21:17:03.733Z,93.40
2022-12-18T21:21:26.916Z,93.80
2022-12-18T21:25:50.757Z,93.40
2022-12-18T21:30:18.090Z,92.70
2022-12-18T21:34:44.692Z,92.80
2022-12-18T21:39:09.536Z,92.00
2022-12-18T21:44:00.362Z,93.00
2022-12-18T21:48:22.313Z,92.40
2022-12-18T21:52:44.449Z,91.70
2022-12-18T21:57:08.607Z,91.50
2022-12-18T22:01:36.595Z,92.00
2022-12-18T22:06:09.277Z,92.00
2022-12-18T22:10:31.525Z,92.20
2022-12-18T22:14:53.593Z,91.80
2022-12-18T22:19:16.944Z,91.40
2022-12-18T22:23:38.888Z,90.50
2022-12-18T22:28:19.729Z,90.30
2022-12-18T22:32:41.400Z,91.40
2022-12-18T22:37:03.554Z,91.40
2022-12-18T22:41:25.375Z,91.00
2022-12-18T22:45:49.097Z,91.00
2022-12-18T22:50:13.920Z,91.20
2022-12-18T22:54:36.429Z,91.30
2022-12-18T22:58:58.668Z,90.70
2022-12-18T23:03:20.315Z,90.60
2022-12-18T23:07:42.495Z,90.70
2022-12-18T23:12:05.099Z,91.10
2022-12-18T23:16:26.986Z,91.30
2022-12-18T23:20:49.198Z,91.10
2022-12-18T23:25:12.726Z,90.50
2022-12-18T23:29:34.719Z,90.30
2022-12-18T23:34:01.727Z,91.40
2022-12-18T23:38:23.325Z,92.40
2022-12-18T23:42:45.252Z,92.40
2022-12-18T23:47:07.160Z,91.60
2022-12-18T23:51:30.401Z,92.30
2022-12-18T23:55:52.371Z,92.00
